sensor_id;sensor_type;location;lat;lon;timestamp;P1;durP1;ratioP1;P2;durP2;ratioP2
28009;SDS011;15334;49.494;8.410;2023-05-20T00:00:25;7.72;;;2.42;;
28009;SDS011;15334;49.494;8.410;2023-05-20T00:02:53;5.65;;;2.63;;
28009;SDS011;15334;49.494;8.410;2023-05-20T00:05:27;5.85;;;3.05;;
28009;SDS011;15334;49.494;8.410;2023-05-20T00:07:56;5.15;;;2.10;;
28009;SDS011;15334;49.494;8.410;2023-05-20T00:10:27;11.00;;;2.30;;
28009;SDS011;15334;49.494;8.410;2023-05-20T00:13:03;4.47;;;2.40;;
28009;SDS011;15334;49.494;8.410;2023-05-20T00:15:34;4.88;;;2.20;;
28009;SDS011;15334;49.494;8.410;2023-05-20T00:18:06;6.28;;;2.70;;
28009;SDS011;15334;49.494;8.410;2023-05-20T00:20:53;5.00;;;2.55;;
28009;SDS011;15334;49.494;8.410;2023-05-20T00:23:30;4.07;;;1.65;;
28009;SDS011;15334;49.494;8.410;2023-05-20T00:26:04;4.75;;;2.67;;
28009;SDS011;15334;49.494;8.410;2023-05-20T00:28:33;3.75;;;1.92;;
28009;SDS011;15334;49.494;8.410;2023-05-20T00:31:04;7.20;;;3.30;;
28009;SDS011;15334;49.494;8.410;2023-05-20T00:33:41;6.65;;;2.15;;
28009;SDS011;15334;49.494;8.410;2023-05-20T00:36:09;5.38;;;2.00;;
28009;SDS011;15334;49.494;8.410;2023-05-20T00:38:43;5.82;;;2.20;;
28009;SDS011;15334;49.494;8.410;2023-05-20T00:41:17;5.30;;;2.38;;
28009;SDS011;15334;49.494;8.410;2023-05-20T00:43:46;7.00;;;2.58;;
28009;SDS011;15334;49.494;8.410;2023-05-20T00:46:14;4.25;;;1.95;;
28009;SDS011;15334;49.494;8.410;2023-05-20T00:48:44;5.43;;;2.50;;
28009;SDS011;15334;49.494;8.410;2023-05-20T00:51:16;5.45;;;2.03;;
28009;SDS011;15334;49.494;8.410;2023-05-20T00:53:46;5.15;;;2.40;;
28009;SDS011;15334;49.494;8.410;2023-05-20T00:56:14;4.18;;;2.05;;
28009;SDS011;15334;49.494;8.410;2023-05-20T00:58:43;5.38;;;2.40;;
28009;SDS011;15334;49.494;8.410;2023-05-20T01:01:11;7.25;;;2.30;;
28009;SDS011;15334;49.494;8.410;2023-05-20T01:03:48;5.47;;;2.25;;
28009;SDS011;15334;49.494;8.410;2023-05-20T01:06:24;4.40;;;2.25;;
28009;SDS011;15334;49.494;8.410;2023-05-20T01:08:58;7.75;;;2.78;;
28009;SDS011;15334;49.494;8.410;2023-05-20T01:11:27;7.22;;;2.38;;
28009;SDS011;15334;49.494;8.410;2023-05-20T01:16:39;6.10;;;2.78;;
28009;SDS011;15334;49.494;8.410;2023-05-20T01:19:13;6.45;;;2.88;;
28009;SDS011;15334;49.494;8.410;2023-05-20T01:21:49;8.82;;;2.60;;
28009;SDS011;15334;49.494;8.410;2023-05-20T01:24:24;9.18;;;2.92;;
28009;SDS011;15334;49.494;8.410;2023-05-20T01:27:00;5.40;;;2.47;;
28009;SDS011;15334;49.494;8.410;2023-05-20T01:29:34;6.55;;;2.35;;
28009;SDS011;15334;49.494;8.410;2023-05-20T01:32:15;5.93;;;2.60;;
28009;SDS011;15334;49.494;8.410;2023-05-20T01:35:04;5.45;;;2.38;;
28009;SDS011;15334;49.494;8.410;2023-05-20T01:37:40;5.72;;;2.78;;
28009;SDS011;15334;49.494;8.410;2023-05-20T01:40:12;7.00;;;2.33;;
28009;SDS011;15334;49.494;8.410;2023-05-20T01:42:42;6.68;;;2.67;;
28009;SDS011;15334;49.494;8.410;2023-05-20T01:45:19;7.60;;;3.30;;
28009;SDS011;15334;49.494;8.410;2023-05-20T01:48:05;5.07;;;2.72;;
28009;SDS011;15334;49.494;8.410;2023-05-20T01:50:37;4.53;;;2.30;;
28009;SDS011;15334;49.494;8.410;2023-05-20T01:53:06;7.25;;;3.30;;
28009;SDS011;15334;49.494;8.410;2023-05-20T01:56:12;4.88;;;2.55;;
28009;SDS011;15334;49.494;8.410;2023-05-20T01:58:44;5.22;;;2.60;;
28009;SDS011;15334;49.494;8.410;2023-05-20T02:01:21;7.07;;;3.10;;
28009;SDS011;15334;49.494;8.410;2023-05-20T02:04:01;7.68;;;2.80;;
28009;SDS011;15334;49.494;8.410;2023-05-20T02:06:29;5.63;;;2.45;;
28009;SDS011;15334;49.494;8.410;2023-05-20T02:09:08;7.30;;;3.00;;
28009;SDS011;15334;49.494;8.410;2023-05-20T02:11:37;6.43;;;2.85;;
28009;SDS011;15334;49.494;8.410;2023-05-20T02:14:16;5.47;;;2.50;;
28009;SDS011;15334;49.494;8.410;2023-05-20T02:16:57;7.78;;;3.08;;
28009;SDS011;15334;49.494;8.410;2023-05-20T02:19:39;5.00;;;2.47;;
28009;SDS011;15334;49.494;8.410;2023-05-20T02:22:07;5.00;;;2.78;;
28009;SDS011;15334;49.494;8.410;2023-05-20T02:24:35;5.18;;;2.10;;
28009;SDS011;15334;49.494;8.410;2023-05-20T02:27:05;6.80;;;2.30;;
28009;SDS011;15334;49.494;8.410;2023-05-20T02:29:33;7.40;;;2.58;;
28009;SDS011;15334;49.494;8.410;2023-05-20T02:32:02;5.10;;;2.58;;
28009;SDS011;15334;49.494;8.410;2023-05-20T02:34:31;4.13;;;2.38;;
28009;SDS011;15334;49.494;8.410;2023-05-20T02:36:59;5.70;;;2.72;;
28009;SDS011;15334;49.494;8.410;2023-05-20T02:39:28;5.78;;;2.60;;
28009;SDS011;15334;49.494;8.410;2023-05-20T02:41:56;6.13;;;2.35;;
28009;SDS011;15334;49.494;8.410;2023-05-20T02:44:25;4.97;;;2.45;;
28009;SDS011;15334;49.494;8.410;2023-05-20T02:46:53;6.53;;;2.53;;
28009;SDS011;15334;49.494;8.410;2023-05-20T02:49:21;8.52;;;2.72;;
28009;SDS011;15334;49.494;8.410;2023-05-20T02:51:49;6.85;;;3.28;;
28009;SDS011;15334;49.494;8.410;2023-05-20T02:54:17;6.03;;;2.65;;
28009;SDS011;15334;49.494;8.410;2023-05-20T02:56:45;8.07;;;2.90;;
28009;SDS011;15334;49.494;8.410;2023-05-20T02:59:13;6.75;;;2.85;;
28009;SDS011;15334;49.494;8.410;2023-05-20T03:01:43;4.53;;;2.70;;
28009;SDS011;15334;49.494;8.410;2023-05-20T03:04:11;5.03;;;2.80;;
28009;SDS011;15334;49.494;8.410;2023-05-20T03:06:39;5.63;;;2.85;;
28009;SDS011;15334;49.494;8.410;2023-05-20T03:09:09;4.68;;;2.88;;
28009;SDS011;15334;49.494;8.410;2023-05-20T03:11:38;7.38;;;3.03;;
28009;SDS011;15334;49.494;8.410;2023-05-20T03:14:06;6.93;;;2.40;;
28009;SDS011;15334;49.494;8.410;2023-05-20T03:16:34;6.72;;;3.00;;
28009;SDS011;15334;49.494;8.410;2023-05-20T03:19:03;5.68;;;3.08;;
28009;SDS011;15334;49.494;8.410;2023-05-20T03:21:31;7.50;;;2.80;;
28009;SDS011;15334;49.494;8.410;2023-05-20T03:23:59;7.93;;;2.90;;
28009;SDS011;15334;49.494;8.410;2023-05-20T03:26:27;5.28;;;2.92;;
28009;SDS011;15334;49.494;8.410;2023-05-20T03:28:58;8.50;;;2.78;;
28009;SDS011;15334;49.494;8.410;2023-05-20T03:31:26;7.05;;;3.38;;
28009;SDS011;15334;49.494;8.410;2023-05-20T03:33:54;8.35;;;2.90;;
28009;SDS011;15334;49.494;8.410;2023-05-20T03:36:24;7.03;;;2.53;;
28009;SDS011;15334;49.494;8.410;2023-05-20T03:38:52;7.55;;;3.03;;
28009;SDS011;15334;49.494;8.410;2023-05-20T03:41:20;7.57;;;3.25;;
28009;SDS011;15334;49.494;8.410;2023-05-20T03:43:49;6.40;;;3.08;;
28009;SDS011;15334;49.494;8.410;2023-05-20T03:46:17;7.32;;;2.60;;
28009;SDS011;15334;49.494;8.410;2023-05-20T03:48:45;8.38;;;2.85;;
28009;SDS011;15334;49.494;8.410;2023-05-20T03:51:13;6.68;;;3.40;;
28009;SDS011;15334;49.494;8.410;2023-05-20T03:53:42;6.90;;;3.53;;
28009;SDS011;15334;49.494;8.410;2023-05-20T03:56:10;8.00;;;3.58;;
28009;SDS011;15334;49.494;8.410;2023-05-20T03:58:38;9.38;;;3.95;;
28009;SDS011;15334;49.494;8.410;2023-05-20T04:01:07;7.45;;;3.97;;
28009;SDS011;15334;49.494;8.410;2023-05-20T04:03:36;14.30;;;3.85;;
28009;SDS011;15334;49.494;8.410;2023-05-20T04:06:04;10.13;;;4.55;;
28009;SDS011;15334;49.494;8.410;2023-05-20T04:08:32;8.52;;;3.90;;
28009;SDS011;15334;49.494;8.410;2023-05-20T04:11:03;8.75;;;4.07;;
28009;SDS011;15334;49.494;8.410;2023-05-20T04:13:31;8.95;;;3.80;;
28009;SDS011;15334;49.494;8.410;2023-05-20T04:16:00;9.95;;;3.97;;
28009;SDS011;15334;49.494;8.410;2023-05-20T04:18:28;7.00;;;3.42;;
28009;SDS011;15334;49.494;8.410;2023-05-20T04:20:57;12.40;;;4.55;;
28009;SDS011;15334;49.494;8.410;2023-05-20T04:23:26;9.55;;;4.65;;
28009;SDS011;15334;49.494;8.410;2023-05-20T04:25:54;7.88;;;4.53;;
28009;SDS011;15334;49.494;8.410;2023-05-20T04:28:29;7.57;;;4.10;;
28009;SDS011;15334;49.494;8.410;2023-05-20T04:30:57;9.82;;;4.03;;
28009;SDS011;15334;49.494;8.410;2023-05-20T04:33:28;8.60;;;4.20;;
28009;SDS011;15334;49.494;8.410;2023-05-20T04:35:56;7.75;;;3.72;;
28009;SDS011;15334;49.494;8.410;2023-05-20T04:38:24;7.78;;;3.65;;
28009;SDS011;15334;49.494;8.410;2023-05-20T04:40:55;8.75;;;3.83;;
28009;SDS011;15334;49.494;8.410;2023-05-20T04:43:24;9.15;;;3.67;;
28009;SDS011;15334;49.494;8.410;2023-05-20T04:45:56;7.75;;;4.20;;
28009;SDS011;15334;49.494;8.410;2023-05-20T04:48:25;9.57;;;4.22;;
28009;SDS011;15334;49.494;8.410;2023-05-20T04:50:54;8.20;;;3.97;;
28009;SDS011;15334;49.494;8.410;2023-05-20T04:53:22;10.77;;;3.83;;
28009;SDS011;15334;49.494;8.410;2023-05-20T04:55:53;8.20;;;3.58;;
28009;SDS011;15334;49.494;8.410;2023-05-20T04:58:22;10.43;;;3.63;;
28009;SDS011;15334;49.494;8.410;2023-05-20T05:00:50;10.02;;;4.18;;
28009;SDS011;15334;49.494;8.410;2023-05-20T05:03:20;6.57;;;3.70;;
28009;SDS011;15334;49.494;8.410;2023-05-20T05:05:49;8.25;;;3.40;;
28009;SDS011;15334;49.494;8.410;2023-05-20T05:08:17;7.03;;;3.38;;
28009;SDS011;15334;49.494;8.410;2023-05-20T05:10:45;8.02;;;3.67;;
28009;SDS011;15334;49.494;8.410;2023-05-20T05:13:13;7.88;;;3.13;;
28009;SDS011;15334;49.494;8.410;2023-05-20T05:15:41;5.05;;;2.88;;
28009;SDS011;15334;49.494;8.410;2023-05-20T05:18:09;7.32;;;3.53;;
28009;SDS011;15334;49.494;8.410;2023-05-20T05:20:39;7.30;;;3.28;;
28009;SDS011;15334;49.494;8.410;2023-05-20T05:23:07;6.63;;;3.17;;
28009;SDS011;15334;49.494;8.410;2023-05-20T05:25:35;5.43;;;3.28;;
28009;SDS011;15334;49.494;8.410;2023-05-20T05:28:03;7.03;;;3.63;;
28009;SDS011;15334;49.494;8.410;2023-05-20T05:30:31;6.78;;;3.10;;
28009;SDS011;15334;49.494;8.410;2023-05-20T05:32:59;6.72;;;3.65;;
28009;SDS011;15334;49.494;8.410;2023-05-20T05:35:27;9.75;;;3.75;;
28009;SDS011;15334;49.494;8.410;2023-05-20T05:37:57;6.05;;;3.00;;
28009;SDS011;15334;49.494;8.410;2023-05-20T05:40:25;7.38;;;3.40;;
28009;SDS011;15334;49.494;8.410;2023-05-20T05:42:54;6.60;;;3.13;;
28009;SDS011;15334;49.494;8.410;2023-05-20T05:45:22;5.80;;;3.22;;
28009;SDS011;15334;49.494;8.410;2023-05-20T05:47:50;4.65;;;3.03;;
28009;SDS011;15334;49.494;8.410;2023-05-20T05:50:18;6.65;;;3.25;;
28009;SDS011;15334;49.494;8.410;2023-05-20T05:52:46;5.63;;;3.30;;
28009;SDS011;15334;49.494;8.410;2023-05-20T05:55:15;5.95;;;3.00;;
28009;SDS011;15334;49.494;8.410;2023-05-20T05:57:44;6.90;;;3.78;;
28009;SDS011;15334;49.494;8.410;2023-05-20T06:00:12;4.82;;;2.97;;
28009;SDS011;15334;49.494;8.410;2023-05-20T06:02:41;7.05;;;3.25;;
28009;SDS011;15334;49.494;8.410;2023-05-20T06:05:09;6.10;;;3.20;;
28009;SDS011;15334;49.494;8.410;2023-05-20T06:07:37;6.97;;;2.85;;
28009;SDS011;15334;49.494;8.410;2023-05-20T06:10:05;7.15;;;3.60;;
28009;SDS011;15334;49.494;8.410;2023-05-20T06:12:36;7.88;;;3.83;;
28009;SDS011;15334;49.494;8.410;2023-05-20T06:15:04;5.78;;;3.50;;
28009;SDS011;15334;49.494;8.410;2023-05-20T06:17:33;6.55;;;2.78;;
28009;SDS011;15334;49.494;8.410;2023-05-20T06:20:01;9.23;;;3.63;;
28009;SDS011;15334;49.494;8.410;2023-05-20T06:22:29;6.72;;;3.25;;
28009;SDS011;15334;49.494;8.410;2023-05-20T06:24:57;4.82;;;2.97;;
28009;SDS011;15334;49.494;8.410;2023-05-20T06:27:27;6.57;;;3.33;;
28009;SDS011;15334;49.494;8.410;2023-05-20T06:29:57;11.27;;;3.78;;
28009;SDS011;15334;49.494;8.410;2023-05-20T06:32:25;6.05;;;3.15;;
28009;SDS011;15334;49.494;8.410;2023-05-20T06:34:54;10.02;;;3.58;;
28009;SDS011;15334;49.494;8.410;2023-05-20T06:37:21;7.60;;;3.85;;
28009;SDS011;15334;49.494;8.410;2023-05-20T06:39:50;6.70;;;4.40;;
28009;SDS011;15334;49.494;8.410;2023-05-20T06:42:20;7.97;;;4.22;;
28009;SDS011;15334;49.494;8.410;2023-05-20T06:44:48;8.90;;;4.60;;
28009;SDS011;15334;49.494;8.410;2023-05-20T06:47:17;12.90;;;4.47;;
28009;SDS011;15334;49.494;8.410;2023-05-20T06:49:46;6.68;;;3.97;;
28009;SDS011;15334;49.494;8.410;2023-05-20T06:52:14;6.90;;;4.10;;
28009;SDS011;15334;49.494;8.410;2023-05-20T06:54:42;10.73;;;4.18;;
28009;SDS011;15334;49.494;8.410;2023-05-20T06:57:10;7.18;;;3.92;;
28009;SDS011;15334;49.494;8.410;2023-05-20T06:59:38;6.90;;;4.50;;
28009;SDS011;15334;49.494;8.410;2023-05-20T07:02:06;6.72;;;4.40;;
28009;SDS011;15334;49.494;8.410;2023-05-20T07:04:36;7.07;;;3.95;;
28009;SDS011;15334;49.494;8.410;2023-05-20T07:07:04;8.25;;;4.03;;
28009;SDS011;15334;49.494;8.410;2023-05-20T07:09:32;6.50;;;4.50;;
28009;SDS011;15334;49.494;8.410;2023-05-20T07:12:00;7.43;;;3.90;;
28009;SDS011;15334;49.494;8.410;2023-05-20T07:14:29;9.15;;;4.63;;
28009;SDS011;15334;49.494;8.410;2023-05-20T07:17:00;7.50;;;4.10;;
28009;SDS011;15334;49.494;8.410;2023-05-20T07:19:40;7.57;;;4.63;;
28009;SDS011;15334;49.494;8.410;2023-05-20T07:22:28;7.50;;;3.65;;
28009;SDS011;15334;49.494;8.410;2023-05-20T07:25:13;8.02;;;3.78;;
28009;SDS011;15334;49.494;8.410;2023-05-20T07:27:49;5.38;;;3.58;;
28009;SDS011;15334;49.494;8.410;2023-05-20T07:30:17;8.57;;;4.15;;
28009;SDS011;15334;49.494;8.410;2023-05-20T07:32:46;9.68;;;4.15;;
28009;SDS011;15334;49.494;8.410;2023-05-20T07:35:20;9.90;;;4.70;;
28009;SDS011;15334;49.494;8.410;2023-05-20T07:37:52;6.35;;;3.42;;
28009;SDS011;15334;49.494;8.410;2023-05-20T07:40:23;8.50;;;3.55;;
28009;SDS011;15334;49.494;8.410;2023-05-20T07:42:51;7.22;;;3.75;;
28009;SDS011;15334;49.494;8.410;2023-05-20T07:45:20;7.97;;;3.92;;
28009;SDS011;15334;49.494;8.410;2023-05-20T07:47:48;8.52;;;4.22;;
28009;SDS011;15334;49.494;8.410;2023-05-20T07:50:20;7.30;;;4.05;;
28009;SDS011;15334;49.494;8.410;2023-05-20T07:52:48;6.50;;;4.10;;
28009;SDS011;15334;49.494;8.410;2023-05-20T07:55:22;6.57;;;4.13;;
28009;SDS011;15334;49.494;8.410;2023-05-20T07:57:52;5.82;;;3.95;;
28009;SDS011;15334;49.494;8.410;2023-05-20T08:00:21;6.65;;;4.25;;
28009;SDS011;15334;49.494;8.410;2023-05-20T08:02:49;8.95;;;5.05;;
28009;SDS011;15334;49.494;8.410;2023-05-20T08:05:19;6.65;;;4.05;;
28009;SDS011;15334;49.494;8.410;2023-05-20T08:07:47;8.57;;;3.95;;
28009;SDS011;15334;49.494;8.410;2023-05-20T08:10:19;6.90;;;4.18;;
28009;SDS011;15334;49.494;8.410;2023-05-20T08:12:47;9.13;;;4.25;;
28009;SDS011;15334;49.494;8.410;2023-05-20T08:15:15;7.78;;;4.00;;
28009;SDS011;15334;49.494;8.410;2023-05-20T08:17:43;6.97;;;3.83;;
28009;SDS011;15334;49.494;8.410;2023-05-20T08:20:11;11.32;;;4.13;;
28009;SDS011;15334;49.494;8.410;2023-05-20T08:23:04;7.60;;;3.90;;
28009;SDS011;15334;49.494;8.410;2023-05-20T08:25:35;7.93;;;3.87;;
28009;SDS011;15334;49.494;8.410;2023-05-20T08:28:12;6.82;;;3.88;;
28009;SDS011;15334;49.494;8.410;2023-05-20T08:30:42;7.82;;;4.30;;
28009;SDS011;15334;49.494;8.410;2023-05-20T08:33:23;9.93;;;4.45;;
28009;SDS011;15334;49.494;8.410;2023-05-20T08:35:52;10.77;;;4.85;;
28009;SDS011;15334;49.494;8.410;2023-05-20T08:38:30;8.48;;;4.50;;
28009;SDS011;15334;49.494;8.410;2023-05-20T08:41:34;6.07;;;3.63;;
28009;SDS011;15334;49.494;8.410;2023-05-20T08:44:09;9.57;;;4.75;;
28009;SDS011;15334;49.494;8.410;2023-05-20T08:46:40;8.48;;;4.70;;
28009;SDS011;15334;49.494;8.410;2023-05-20T08:49:44;7.35;;;4.38;;
28009;SDS011;15334;49.494;8.410;2023-05-20T08:52:16;11.05;;;4.20;;
28009;SDS011;15334;49.494;8.410;2023-05-20T08:54:52;9.32;;;4.72;;
28009;SDS011;15334;49.494;8.410;2023-05-20T09:05:06;8.38;;;4.40;;
28009;SDS011;15334;49.494;8.410;2023-05-20T09:08:05;6.63;;;3.72;;
28009;SDS011;15334;49.494;8.410;2023-05-20T09:10:59;9.18;;;4.00;;
28009;SDS011;15334;49.494;8.410;2023-05-20T09:14:31;8.18;;;4.45;;
28009;SDS011;15334;49.494;8.410;2023-05-20T09:17:19;10.00;;;4.60;;
28009;SDS011;15334;49.494;8.410;2023-05-20T09:19:51;7.53;;;4.60;;
28009;SDS011;15334;49.494;8.410;2023-05-20T09:22:57;10.63;;;4.78;;
28009;SDS011;15334;49.494;8.410;2023-05-20T09:25:34;9.25;;;4.88;;
28009;SDS011;15334;49.494;8.410;2023-05-20T09:28:21;8.73;;;5.00;;
28009;SDS011;15334;49.494;8.410;2023-05-20T09:30:55;7.05;;;4.07;;
28009;SDS011;15334;49.494;8.410;2023-05-20T09:33:28;8.77;;;4.85;;
28009;SDS011;15334;49.494;8.410;2023-05-20T09:36:06;7.85;;;4.30;;
28009;SDS011;15334;49.494;8.410;2023-05-20T09:39:05;7.03;;;4.00;;
28009;SDS011;15334;49.494;8.410;2023-05-20T09:41:41;5.55;;;3.80;;
28009;SDS011;15334;49.494;8.410;2023-05-20T09:44:23;7.97;;;4.35;;
28009;SDS011;15334;49.494;8.410;2023-05-20T09:47:18;6.00;;;4.03;;
28009;SDS011;15334;49.494;8.410;2023-05-20T09:49:56;8.70;;;3.83;;
28009;SDS011;15334;49.494;8.410;2023-05-20T09:52:31;8.18;;;4.25;;
28009;SDS011;15334;49.494;8.410;2023-05-20T09:55:05;10.05;;;4.22;;
28009;SDS011;15334;49.494;8.410;2023-05-20T09:57:36;5.95;;;3.83;;
28009;SDS011;15334;49.494;8.410;2023-05-20T10:00:29;8.73;;;4.25;;
28009;SDS011;15334;49.494;8.410;2023-05-20T10:03:03;8.38;;;3.90;;
28009;SDS011;15334;49.494;8.410;2023-05-20T10:05:46;8.15;;;4.22;;
28009;SDS011;15334;49.494;8.410;2023-05-20T10:08:48;7.10;;;4.25;;
28009;SDS011;15334;49.494;8.410;2023-05-20T10:11:32;6.72;;;4.00;;
28009;SDS011;15334;49.494;8.410;2023-05-20T10:14:25;5.88;;;3.95;;
28009;SDS011;15334;49.494;8.410;2023-05-20T10:17:09;6.80;;;4.07;;
28009;SDS011;15334;49.494;8.410;2023-05-20T10:19:56;7.97;;;4.40;;
28009;SDS011;15334;49.494;8.410;2023-05-20T10:22:53;7.10;;;4.20;;
28009;SDS011;15334;49.494;8.410;2023-05-20T10:25:24;6.60;;;4.43;;
28009;SDS011;15334;49.494;8.410;2023-05-20T10:28:03;6.68;;;4.47;;
28009;SDS011;15334;49.494;8.410;2023-05-20T10:30:37;6.82;;;4.28;;
28009;SDS011;15334;49.494;8.410;2023-05-20T10:33:27;6.38;;;4.10;;
28009;SDS011;15334;49.494;8.410;2023-05-20T10:36:27;7.53;;;4.93;;
28009;SDS011;15334;49.494;8.410;2023-05-20T10:39:00;11.80;;;4.43;;
28009;SDS011;15334;49.494;8.410;2023-05-20T10:41:30;6.45;;;3.97;;
28009;SDS011;15334;49.494;8.410;2023-05-20T10:44:00;8.23;;;4.07;;
28009;SDS011;15334;49.494;8.410;2023-05-20T10:46:33;7.93;;;4.72;;
28009;SDS011;15334;49.494;8.410;2023-05-20T10:49:23;6.32;;;4.10;;
28009;SDS011;15334;49.494;8.410;2023-05-20T10:51:53;10.90;;;4.93;;
28009;SDS011;15334;49.494;8.410;2023-05-20T10:54:21;8.77;;;4.55;;
28009;SDS011;15334;49.494;8.410;2023-05-20T10:56:50;8.25;;;4.53;;
28009;SDS011;15334;49.494;8.410;2023-05-20T10:59:19;6.60;;;3.78;;
28009;SDS011;15334;49.494;8.410;2023-05-20T11:01:48;6.72;;;4.13;;
28009;SDS011;15334;49.494;8.410;2023-05-20T11:04:16;7.03;;;4.53;;
28009;SDS011;15334;49.494;8.410;2023-05-20T11:06:50;8.07;;;4.70;;
28009;SDS011;15334;49.494;8.410;2023-05-20T11:09:21;7.90;;;4.25;;
28009;SDS011;15334;49.494;8.410;2023-05-20T11:11:50;12.75;;;5.65;;
28009;SDS011;15334;49.494;8.410;2023-05-20T11:14:20;13.20;;;5.07;;
28009;SDS011;15334;49.494;8.410;2023-05-20T11:16:51;9.80;;;5.18;;
28009;SDS011;15334;49.494;8.410;2023-05-20T11:19:22;6.68;;;4.00;;
28009;SDS011;15334;49.494;8.410;2023-05-20T11:21:53;6.88;;;4.20;;
28009;SDS011;15334;49.494;8.410;2023-05-20T11:24:22;6.80;;;4.13;;
28009;SDS011;15334;49.494;8.410;2023-05-20T11:26:52;8.70;;;4.05;;
28009;SDS011;15334;49.494;8.410;2023-05-20T11:29:20;8.65;;;4.05;;
28009;SDS011;15334;49.494;8.410;2023-05-20T11:31:49;8.35;;;3.97;;
28009;SDS011;15334;49.494;8.410;2023-05-20T11:34:20;5.88;;;4.28;;
28009;SDS011;15334;49.494;8.410;2023-05-20T11:36:56;7.95;;;4.60;;
28009;SDS011;15334;49.494;8.410;2023-05-20T11:39:28;5.85;;;3.88;;
28009;SDS011;15334;49.494;8.410;2023-05-20T11:41:57;6.20;;;3.90;;
28009;SDS011;15334;49.494;8.410;2023-05-20T11:44:25;7.28;;;3.88;;
28009;SDS011;15334;49.494;8.410;2023-05-20T11:46:58;5.88;;;3.42;;
28009;SDS011;15334;49.494;8.410;2023-05-20T11:49:27;7.85;;;4.57;;
28009;SDS011;15334;49.494;8.410;2023-05-20T11:51:57;5.93;;;3.72;;
28009;SDS011;15334;49.494;8.410;2023-05-20T11:54:26;9.73;;;4.25;;
28009;SDS011;15334;49.494;8.410;2023-05-20T11:56:54;6.60;;;4.13;;
28009;SDS011;15334;49.494;8.410;2023-05-20T11:59:23;7.55;;;4.63;;
28009;SDS011;15334;49.494;8.410;2023-05-20T12:01:54;7.57;;;4.93;;
28009;SDS011;15334;49.494;8.410;2023-05-20T12:04:23;8.07;;;4.00;;
28009;SDS011;15334;49.494;8.410;2023-05-20T12:06:51;7.22;;;5.05;;
28009;SDS011;15334;49.494;8.410;2023-05-20T12:09:22;7.47;;;4.45;;
28009;SDS011;15334;49.494;8.410;2023-05-20T12:11:51;7.20;;;4.60;;
28009;SDS011;15334;49.494;8.410;2023-05-20T12:14:21;12.27;;;4.40;;
28009;SDS011;15334;49.494;8.410;2023-05-20T12:17:01;8.60;;;4.03;;
28009;SDS011;15334;49.494;8.410;2023-05-20T12:19:37;6.75;;;3.63;;
28009;SDS011;15334;49.494;8.410;2023-05-20T12:22:10;5.50;;;3.17;;
28009;SDS011;15334;49.494;8.410;2023-05-20T12:24:45;8.45;;;4.20;;
28009;SDS011;15334;49.494;8.410;2023-05-20T12:27:22;6.88;;;4.25;;
28009;SDS011;15334;49.494;8.410;2023-05-20T12:29:59;7.68;;;3.80;;
28009;SDS011;15334;49.494;8.410;2023-05-20T12:32:37;5.53;;;4.05;;
28009;SDS011;15334;49.494;8.410;2023-05-20T12:35:09;9.73;;;4.30;;
28009;SDS011;15334;49.494;8.410;2023-05-20T12:37:40;6.67;;;3.87;;
28009;SDS011;15334;49.494;8.410;2023-05-20T12:40:13;7.65;;;4.22;;
28009;SDS011;15334;49.494;8.410;2023-05-20T12:42:41;6.22;;;3.92;;
28009;SDS011;15334;49.494;8.410;2023-05-20T12:45:10;7.68;;;5.10;;
28009;SDS011;15334;49.494;8.410;2023-05-20T12:47:41;10.50;;;4.70;;
28009;SDS011;15334;49.494;8.410;2023-05-20T12:50:16;7.32;;;4.65;;
28009;SDS011;15334;49.494;8.410;2023-05-20T12:52:56;12.48;;;5.85;;
28009;SDS011;15334;49.494;8.410;2023-05-20T12:55:26;6.78;;;4.20;;
28009;SDS011;15334;49.494;8.410;2023-05-20T12:57:56;7.75;;;5.38;;
28009;SDS011;15334;49.494;8.410;2023-05-20T13:00:24;9.32;;;5.00;;
28009;SDS011;15334;49.494;8.410;2023-05-20T13:02:55;7.55;;;4.60;;
28009;SDS011;15334;49.494;8.410;2023-05-20T13:05:25;6.45;;;4.28;;
28009;SDS011;15334;49.494;8.410;2023-05-20T13:07:56;8.13;;;4.53;;
28009;SDS011;15334;49.494;8.410;2023-05-20T13:10:26;7.97;;;4.55;;
28009;SDS011;15334;49.494;8.410;2023-05-20T13:12:59;7.13;;;4.88;;
28009;SDS011;15334;49.494;8.410;2023-05-20T13:15:29;9.45;;;4.65;;
28009;SDS011;15334;49.494;8.410;2023-05-20T13:18:00;7.88;;;4.90;;
28009;SDS011;15334;49.494;8.410;2023-05-20T13:20:32;8.80;;;4.83;;
28009;SDS011;15334;49.494;8.410;2023-05-20T13:23:05;7.07;;;4.65;;
28009;SDS011;15334;49.494;8.410;2023-05-20T13:25:36;7.07;;;4.22;;
28009;SDS011;15334;49.494;8.410;2023-05-20T13:28:10;7.80;;;4.72;;
28009;SDS011;15334;49.494;8.410;2023-05-20T13:30:42;7.93;;;4.97;;
28009;SDS011;15334;49.494;8.410;2023-05-20T13:33:17;7.03;;;4.47;;
28009;SDS011;15334;49.494;8.410;2023-05-20T13:35:46;7.93;;;4.82;;
28009;SDS011;15334;49.494;8.410;2023-05-20T13:38:14;11.45;;;4.18;;
28009;SDS011;15334;49.494;8.410;2023-05-20T13:40:45;6.28;;;3.92;;
28009;SDS011;15334;49.494;8.410;2023-05-20T13:43:14;7.43;;;4.32;;
28009;SDS011;15334;49.494;8.410;2023-05-20T13:45:42;7.70;;;4.55;;
28009;SDS011;15334;49.494;8.410;2023-05-20T13:48:10;6.38;;;4.20;;
28009;SDS011;15334;49.494;8.410;2023-05-20T13:50:38;12.25;;;4.82;;
28009;SDS011;15334;49.494;8.410;2023-05-20T13:53:09;7.70;;;4.70;;
28009;SDS011;15334;49.494;8.410;2023-05-20T13:55:40;7.47;;;4.60;;
28009;SDS011;15334;49.494;8.410;2023-05-20T13:58:09;6.35;;;4.45;;
28009;SDS011;15334;49.494;8.410;2023-05-20T14:00:38;7.43;;;4.80;;
28009;SDS011;15334;49.494;8.410;2023-05-20T14:03:06;7.72;;;4.22;;
28009;SDS011;15334;49.494;8.410;2023-05-20T14:05:35;7.07;;;4.20;;
28009;SDS011;15334;49.494;8.410;2023-05-20T14:08:04;7.13;;;4.18;;
28009;SDS011;15334;49.494;8.410;2023-05-20T14:10:39;8.18;;;4.00;;
28009;SDS011;15334;49.494;8.410;2023-05-20T14:13:17;7.90;;;5.07;;
28009;SDS011;15334;49.494;8.410;2023-05-20T14:15:45;8.68;;;4.75;;
28009;SDS011;15334;49.494;8.410;2023-05-20T14:18:17;8.02;;;4.88;;
28009;SDS011;15334;49.494;8.410;2023-05-20T14:20:46;8.57;;;5.40;;
28009;SDS011;15334;49.494;8.410;2023-05-20T14:23:15;10.38;;;5.28;;
28009;SDS011;15334;49.494;8.410;2023-05-20T14:25:43;7.93;;;4.43;;
28009;SDS011;15334;49.494;8.410;2023-05-20T14:28:11;8.55;;;4.82;;
28009;SDS011;15334;49.494;8.410;2023-05-20T14:30:44;7.57;;;4.72;;
28009;SDS011;15334;49.494;8.410;2023-05-20T14:33:16;7.65;;;4.65;;
28009;SDS011;15334;49.494;8.410;2023-05-20T14:35:48;7.45;;;4.82;;
28009;SDS011;15334;49.494;8.410;2023-05-20T14:38:20;6.50;;;4.07;;
28009;SDS011;15334;49.494;8.410;2023-05-20T14:40:55;6.28;;;4.40;;
28009;SDS011;15334;49.494;8.410;2023-05-20T14:43:34;7.93;;;4.78;;
28009;SDS011;15334;49.494;8.410;2023-05-20T14:46:02;10.25;;;5.15;;
28009;SDS011;15334;49.494;8.410;2023-05-20T14:48:32;6.97;;;4.47;;
28009;SDS011;15334;49.494;8.410;2023-05-20T14:51:01;7.65;;;5.28;;
28009;SDS011;15334;49.494;8.410;2023-05-20T14:53:32;8.23;;;4.90;;
28009;SDS011;15334;49.494;8.410;2023-05-20T14:56:00;7.47;;;5.03;;
28009;SDS011;15334;49.494;8.410;2023-05-20T14:58:31;8.75;;;4.80;;
28009;SDS011;15334;49.494;8.410;2023-05-20T15:01:16;7.78;;;4.70;;
28009;SDS011;15334;49.494;8.410;2023-05-20T15:03:47;9.40;;;4.40;;
28009;SDS011;15334;49.494;8.410;2023-05-20T15:06:15;6.97;;;4.85;;
28009;SDS011;15334;49.494;8.410;2023-05-20T15:08:45;7.55;;;4.85;;
28009;SDS011;15334;49.494;8.410;2023-05-20T15:11:17;8.55;;;5.35;;
28009;SDS011;15334;49.494;8.410;2023-05-20T15:16:38;9.63;;;6.20;;
28009;SDS011;15334;49.494;8.410;2023-05-20T15:19:10;10.38;;;6.00;;
28009;SDS011;15334;49.494;8.410;2023-05-20T15:21:39;10.35;;;5.55;;
28009;SDS011;15334;49.494;8.410;2023-05-20T15:24:09;7.78;;;5.30;;
28009;SDS011;15334;49.494;8.410;2023-05-20T15:26:37;9.50;;;5.90;;
28009;SDS011;15334;49.494;8.410;2023-05-20T15:29:09;9.32;;;5.82;;